sensor_id;sensor_type;location;lat;lon;timestamp;P1;durP1;ratioP1;P2;durP2;ratioP2
64313;SDS011;50650;48.180;11.524;2022-08-03T00:00:10;4.22;;;2.53;;
64313;SDS011;50650;48.180;11.524;2022-08-03T00:02:40;4.30;;;2.38;;
64313;SDS011;50650;48.180;11.524;2022-08-03T00:05:07;3.60;;;2.03;;
64313;SDS011;50650;48.180;11.524;2022-08-03T00:07:33;3.90;;;2.10;;
64313;SDS011;50650;48.180;11.524;2022-08-03T00:10:00;4.55;;;1.95;;
64313;SDS011;50650;48.180;11.524;2022-08-03T00:12:26;5.13;;;2.10;;
64313;SDS011;50650;48.180;11.524;2022-08-03T00:14:52;3.15;;;2.10;;
64313;SDS011;50650;48.180;11.524;2022-08-03T00:17:19;3.22;;;2.25;;
64313;SDS011;50650;48.180;11.524;2022-08-03T00:19:47;3.58;;;2.22;;
64313;SDS011;50650;48.180;11.524;2022-08-03T00:22:13;3.05;;;2.30;;
64313;SDS011;50650;48.180;11.524;2022-08-03T00:24:40;4.22;;;1.75;;
64313;SDS011;50650;48.180;11.524;2022-08-03T00:27:06;3.40;;;2.15;;
64313;SDS011;50650;48.180;11.524;2022-08-03T00:29:32;3.88;;;2.15;;
64313;SDS011;50650;48.180;11.524;2022-08-03T00:31:59;5.75;;;2.08;;
64313;SDS011;50650;48.180;11.524;2022-08-03T00:34:25;2.80;;;1.98;;
64313;SDS011;50650;48.180;11.524;2022-08-03T00:36:53;4.30;;;1.80;;
64313;SDS011;50650;48.180;11.524;2022-08-03T00:39:20;2.67;;;1.80;;
64313;SDS011;50650;48.180;11.524;2022-08-03T00:41:46;2.92;;;1.73;;
64313;SDS011;50650;48.180;11.524;2022-08-03T00:44:12;9.13;;;1.80;;
64313;SDS011;50650;48.180;11.524;2022-08-03T00:46:39;2.90;;;1.80;;
64313;SDS011;50650;48.180;11.524;2022-08-03T00:49:05;3.42;;;1.98;;
64313;SDS011;50650;48.180;11.524;2022-08-03T00:51:32;2.95;;;1.50;;
64313;SDS011;50650;48.180;11.524;2022-08-03T00:54:00;4.50;;;1.58;;
64313;SDS011;50650;48.180;11.524;2022-08-03T00:56:27;2.60;;;1.60;;
64313;SDS011;50650;48.180;11.524;2022-08-03T00:58:53;4.93;;;1.70;;
64313;SDS011;50650;48.180;11.524;2022-08-03T01:01:21;1.55;;;1.30;;
64313;SDS011;50650;48.180;11.524;2022-08-03T01:03:47;1.83;;;1.40;;
64313;SDS011;50650;48.180;11.524;2022-08-03T01:06:15;2.22;;;1.42;;
64313;SDS011;50650;48.180;11.524;2022-08-03T01:08:45;3.15;;;1.30;;
64313;SDS011;50650;48.180;11.524;2022-08-03T01:11:16;1.83;;;1.20;;
64313;SDS011;50650;48.180;11.524;2022-08-03T01:13:47;3.53;;;1.35;;
64313;SDS011;50650;48.180;11.524;2022-08-03T01:16:21;1.95;;;1.30;;
64313;SDS011;50650;48.180;11.524;2022-08-03T01:18:51;3.25;;;1.30;;
64313;SDS011;50650;48.180;11.524;2022-08-03T01:21:23;2.03;;;1.15;;
64313;SDS011;50650;48.180;11.524;2022-08-03T01:23:58;3.13;;;1.55;;
64313;SDS011;50650;48.180;11.524;2022-08-03T01:26:36;1.20;;;1.10;;
64313;SDS011;50650;48.180;11.524;2022-08-03T01:29:16;2.17;;;1.40;;
64313;SDS011;50650;48.180;11.524;2022-08-03T01:32:00;1.15;;;1.05;;
64313;SDS011;50650;48.180;11.524;2022-08-03T01:34:30;2.80;;;1.27;;
64313;SDS011;50650;48.180;11.524;2022-08-03T01:36:57;1.67;;;1.25;;
64313;SDS011;50650;48.180;11.524;2022-08-03T01:39:24;1.35;;;1.13;;
64313;SDS011;50650;48.180;11.524;2022-08-03T01:41:52;2.20;;;1.00;;
64313;SDS011;50650;48.180;11.524;2022-08-03T01:44:23;3.97;;;1.15;;
64313;SDS011;50650;48.180;11.524;2022-08-03T01:46:51;2.05;;;1.20;;
64313;SDS011;50650;48.180;11.524;2022-08-03T01:49:19;2.25;;;0.98;;
64313;SDS011;50650;48.180;11.524;2022-08-03T01:51:46;2.97;;;1.40;;
64313;SDS011;50650;48.180;11.524;2022-08-03T01:54:13;1.92;;;1.30;;
64313;SDS011;50650;48.180;11.524;2022-08-03T01:56:40;2.50;;;1.20;;
64313;SDS011;50650;48.180;11.524;2022-08-03T01:59:08;1.65;;;1.15;;
64313;SDS011;50650;48.180;11.524;2022-08-03T02:01:35;1.20;;;1.05;;
64313;SDS011;50650;48.180;11.524;2022-08-03T02:04:04;1.88;;;1.20;;
64313;SDS011;50650;48.180;11.524;2022-08-03T02:06:32;2.28;;;1.25;;
64313;SDS011;50650;48.180;11.524;2022-08-03T02:08:59;3.03;;;1.40;;
64313;SDS011;50650;48.180;11.524;2022-08-03T02:11:27;4.15;;;1.33;;
64313;SDS011;50650;48.180;11.524;2022-08-03T02:13:56;1.70;;;1.30;;
64313;SDS011;50650;48.180;11.524;2022-08-03T02:16:23;3.50;;;1.30;;
64313;SDS011;50650;48.180;11.524;2022-08-03T02:18:51;2.10;;;1.33;;
64313;SDS011;50650;48.180;11.524;2022-08-03T02:21:19;1.75;;;1.20;;
64313;SDS011;50650;48.180;11.524;2022-08-03T02:23:46;1.70;;;1.15;;
64313;SDS011;50650;48.180;11.524;2022-08-03T02:26:13;2.38;;;1.50;;
64313;SDS011;50650;48.180;11.524;2022-08-03T02:28:44;1.77;;;1.23;;
64313;SDS011;50650;48.180;11.524;2022-08-03T02:31:12;1.77;;;1.58;;
64313;SDS011;50650;48.180;11.524;2022-08-03T02:33:41;4.15;;;1.30;;
64313;SDS011;50650;48.180;11.524;2022-08-03T02:36:09;2.30;;;1.20;;
64313;SDS011;50650;48.180;11.524;2022-08-03T02:38:39;2.67;;;1.40;;
64313;SDS011;50650;48.180;11.524;2022-08-03T02:41:14;1.40;;;1.30;;
64313;SDS011;50650;48.180;11.524;2022-08-03T02:43:42;3.33;;;1.27;;
64313;SDS011;50650;48.180;11.524;2022-08-03T02:46:12;1.50;;;1.30;;
64313;SDS011;50650;48.180;11.524;2022-08-03T02:48:38;1.70;;;1.20;;
64313;SDS011;50650;48.180;11.524;2022-08-03T02:51:06;3.78;;;1.40;;
64313;SDS011;50650;48.180;11.524;2022-08-03T02:53:32;2.28;;;1.25;;
64313;SDS011;50650;48.180;11.524;2022-08-03T02:56:01;3.63;;;1.40;;
64313;SDS011;50650;48.180;11.524;2022-08-03T02:58:29;1.67;;;1.50;;
64313;SDS011;50650;48.180;11.524;2022-08-03T03:00:56;3.40;;;1.75;;
64313;SDS011;50650;48.180;11.524;2022-08-03T03:03:23;5.65;;;1.10;;
64313;SDS011;50650;48.180;11.524;2022-08-03T03:05:50;2.90;;;1.40;;
64313;SDS011;50650;48.180;11.524;2022-08-03T03:08:18;2.85;;;1.48;;
64313;SDS011;50650;48.180;11.524;2022-08-03T03:10:46;1.40;;;1.10;;
64313;SDS011;50650;48.180;11.524;2022-08-03T03:13:14;1.50;;;1.30;;
64313;SDS011;50650;48.180;11.524;2022-08-03T03:15:41;2.88;;;1.33;;
64313;SDS011;50650;48.180;11.524;2022-08-03T03:18:08;2.08;;;1.50;;
64313;SDS011;50650;48.180;11.524;2022-08-03T03:20:36;3.10;;;1.42;;
64313;SDS011;50650;48.180;11.524;2022-08-03T03:23:04;1.95;;;1.30;;
64313;SDS011;50650;48.180;11.524;2022-08-03T03:25:31;2.03;;;1.30;;
64313;SDS011;50650;48.180;11.524;2022-08-03T03:27:58;2.28;;;1.38;;
64313;SDS011;50650;48.180;11.524;2022-08-03T03:30:27;2.13;;;1.50;;
64313;SDS011;50650;48.180;11.524;2022-08-03T03:32:54;2.08;;;1.20;;
64313;SDS011;50650;48.180;11.524;2022-08-03T03:35:20;1.92;;;1.23;;
64313;SDS011;50650;48.180;11.524;2022-08-03T03:37:47;1.58;;;1.13;;
64313;SDS011;50650;48.180;11.524;2022-08-03T03:40:13;1.83;;;1.20;;
64313;SDS011;50650;48.180;11.524;2022-08-03T03:42:40;2.35;;;1.70;;
64313;SDS011;50650;48.180;11.524;2022-08-03T03:45:07;2.28;;;1.50;;
64313;SDS011;50650;48.180;11.524;2022-08-03T03:47:35;1.50;;;1.17;;
64313;SDS011;50650;48.180;11.524;2022-08-03T03:50:02;5.60;;;1.17;;
64313;SDS011;50650;48.180;11.524;2022-08-03T03:52:30;4.40;;;1.30;;
64313;SDS011;50650;48.180;11.524;2022-08-03T03:54:56;3.70;;;1.38;;
64313;SDS011;50650;48.180;11.524;2022-08-03T03:57:23;5.05;;;1.98;;
64313;SDS011;50650;48.180;11.524;2022-08-03T03:59:50;4.40;;;1.88;;
64313;SDS011;50650;48.180;11.524;2022-08-03T04:02:16;3.40;;;1.95;;
64313;SDS011;50650;48.180;11.524;2022-08-03T04:04:44;3.00;;;2.13;;
64313;SDS011;50650;48.180;11.524;2022-08-03T04:07:29;2.58;;;1.83;;
64313;SDS011;50650;48.180;11.524;2022-08-03T04:10:19;2.42;;;1.50;;
64313;SDS011;50650;48.180;11.524;2022-08-03T04:13:11;2.40;;;1.65;;
64313;SDS011;50650;48.180;11.524;2022-08-03T04:15:38;1.85;;;1.50;;
64313;SDS011;50650;48.180;11.524;2022-08-03T04:18:05;4.25;;;1.35;;
64313;SDS011;50650;48.180;11.524;2022-08-03T04:20:34;3.45;;;1.40;;
64313;SDS011;50650;48.180;11.524;2022-08-03T04:23:01;4.28;;;1.23;;
64313;SDS011;50650;48.180;11.524;2022-08-03T04:25:29;2.50;;;1.83;;
64313;SDS011;50650;48.180;11.524;2022-08-03T04:27:56;3.30;;;1.45;;
64313;SDS011;50650;48.180;11.524;2022-08-03T04:30:26;3.45;;;1.27;;
64313;SDS011;50650;48.180;11.524;2022-08-03T04:32:53;1.98;;;1.35;;
64313;SDS011;50650;48.180;11.524;2022-08-03T04:35:21;2.88;;;1.40;;
64313;SDS011;50650;48.180;11.524;2022-08-03T04:37:50;1.25;;;1.08;;
64313;SDS011;50650;48.180;11.524;2022-08-03T04:40:18;3.15;;;1.33;;
64313;SDS011;50650;48.180;11.524;2022-08-03T04:42:46;4.45;;;1.60;;
64313;SDS011;50650;48.180;11.524;2022-08-03T04:45:14;3.08;;;1.23;;
64313;SDS011;50650;48.180;11.524;2022-08-03T04:47:41;1.80;;;1.38;;
64313;SDS011;50650;48.180;11.524;2022-08-03T04:50:08;2.63;;;1.70;;
64313;SDS011;50650;48.180;11.524;2022-08-03T04:52:35;3.22;;;1.50;;
64313;SDS011;50650;48.180;11.524;2022-08-03T04:55:03;2.78;;;1.40;;
64313;SDS011;50650;48.180;11.524;2022-08-03T04:57:29;2.92;;;1.58;;
64313;SDS011;50650;48.180;11.524;2022-08-03T04:59:56;3.90;;;1.85;;
64313;SDS011;50650;48.180;11.524;2022-08-03T05:02:22;1.92;;;1.30;;
64313;SDS011;50650;48.180;11.524;2022-08-03T05:04:49;1.95;;;1.52;;
64313;SDS011;50650;48.180;11.524;2022-08-03T05:07:16;3.83;;;1.40;;
64313;SDS011;50650;48.180;11.524;2022-08-03T05:09:43;5.10;;;1.42;;
64313;SDS011;50650;48.180;11.524;2022-08-03T05:12:11;3.17;;;1.40;;
64313;SDS011;50650;48.180;11.524;2022-08-03T05:14:37;3.28;;;1.40;;
64313;SDS011;50650;48.180;11.524;2022-08-03T05:17:04;2.13;;;1.27;;
64313;SDS011;50650;48.180;11.524;2022-08-03T05:19:30;2.03;;;1.27;;
64313;SDS011;50650;48.180;11.524;2022-08-03T05:21:57;3.78;;;1.20;;
64313;SDS011;50650;48.180;11.524;2022-08-03T05:24:23;2.78;;;1.25;;
64313;SDS011;50650;48.180;11.524;2022-08-03T05:26:50;2.60;;;1.30;;
64313;SDS011;50650;48.180;11.524;2022-08-03T05:29:18;1.92;;;1.40;;
64313;SDS011;50650;48.180;11.524;2022-08-03T05:31:44;4.10;;;1.40;;
64313;SDS011;50650;48.180;11.524;2022-08-03T05:34:11;2.15;;;1.20;;
64313;SDS011;50650;48.180;11.524;2022-08-03T05:36:37;1.70;;;1.20;;
64313;SDS011;50650;48.180;11.524;2022-08-03T05:39:03;4.28;;;1.42;;
64313;SDS011;50650;48.180;11.524;2022-08-03T05:41:30;2.90;;;1.42;;
64313;SDS011;50650;48.180;11.524;2022-08-03T05:43:57;1.83;;;1.33;;
64313;SDS011;50650;48.180;11.524;2022-08-03T05:46:24;1.67;;;1.05;;
64313;SDS011;50650;48.180;11.524;2022-08-03T05:48:51;4.20;;;1.48;;
64313;SDS011;50650;48.180;11.524;2022-08-03T05:51:17;3.53;;;1.45;;
64313;SDS011;50650;48.180;11.524;2022-08-03T05:53:44;2.72;;;1.52;;
64313;SDS011;50650;48.180;11.524;2022-08-03T05:56:10;5.15;;;1.38;;
64313;SDS011;50650;48.180;11.524;2022-08-03T05:58:37;7.72;;;1.80;;
64313;SDS011;50650;48.180;11.524;2022-08-03T06:01:04;2.35;;;1.40;;
64313;SDS011;50650;48.180;11.524;2022-08-03T06:03:31;6.03;;;1.58;;
64313;SDS011;50650;48.180;11.524;2022-08-03T06:05:58;2.17;;;1.65;;
64313;SDS011;50650;48.180;11.524;2022-08-03T06:08:24;3.92;;;1.65;;
64313;SDS011;50650;48.180;11.524;2022-08-03T06:10:51;1.73;;;1.40;;
64313;SDS011;50650;48.180;11.524;2022-08-03T06:13:17;4.22;;;1.88;;
64313;SDS011;50650;48.180;11.524;2022-08-03T06:15:44;4.45;;;1.45;;
64313;SDS011;50650;48.180;11.524;2022-08-03T06:18:10;5.72;;;1.80;;
64313;SDS011;50650;48.180;11.524;2022-08-03T06:20:38;2.75;;;1.67;;
64313;SDS011;50650;48.180;11.524;2022-08-03T06:23:04;5.05;;;1.85;;
64313;SDS011;50650;48.180;11.524;2022-08-03T06:25:31;6.55;;;1.75;;
64313;SDS011;50650;48.180;11.524;2022-08-03T06:27:57;4.40;;;1.80;;
64313;SDS011;50650;48.180;11.524;2022-08-03T06:30:24;2.92;;;1.80;;
64313;SDS011;50650;48.180;11.524;2022-08-03T06:32:51;5.60;;;1.75;;
64313;SDS011;50650;48.180;11.524;2022-08-03T06:35:17;6.40;;;1.70;;
64313;SDS011;50650;48.180;11.524;2022-08-03T06:37:45;4.80;;;1.60;;
64313;SDS011;50650;48.180;11.524;2022-08-03T06:40:14;4.60;;;1.70;;
64313;SDS011;50650;48.180;11.524;2022-08-03T06:42:42;4.55;;;1.70;;
64313;SDS011;50650;48.180;11.524;2022-08-03T06:45:09;9.48;;;2.20;;
64313;SDS011;50650;48.180;11.524;2022-08-03T06:47:36;8.85;;;3.15;;
64313;SDS011;50650;48.180;11.524;2022-08-03T06:50:03;5.72;;;2.90;;
64313;SDS011;50650;48.180;11.524;2022-08-03T06:52:31;7.20;;;2.85;;
64313;SDS011;50650;48.180;11.524;2022-08-03T06:54:59;6.47;;;2.95;;
64313;SDS011;50650;48.180;11.524;2022-08-03T06:57:25;9.45;;;2.80;;
64313;SDS011;50650;48.180;11.524;2022-08-03T06:59:52;6.60;;;2.58;;
64313;SDS011;50650;48.180;11.524;2022-08-03T07:02:18;6.78;;;2.30;;
64313;SDS011;50650;48.180;11.524;2022-08-03T07:04:45;7.13;;;2.58;;
64313;SDS011;50650;48.180;11.524;2022-08-03T07:07:11;4.97;;;2.17;;
64313;SDS011;50650;48.180;11.524;2022-08-03T07:09:38;5.00;;;2.17;;
64313;SDS011;50650;48.180;11.524;2022-08-03T07:12:05;4.38;;;2.17;;
64313;SDS011;50650;48.180;11.524;2022-08-03T07:14:32;9.75;;;2.50;;
64313;SDS011;50650;48.180;11.524;2022-08-03T07:16:59;4.90;;;2.15;;
64313;SDS011;50650;48.180;11.524;2022-08-03T07:19:25;5.57;;;1.63;;
64313;SDS011;50650;48.180;11.524;2022-08-03T07:21:51;3.45;;;1.58;;
64313;SDS011;50650;48.180;11.524;2022-08-03T07:24:18;6.93;;;1.80;;
64313;SDS011;50650;48.180;11.524;2022-08-03T07:26:44;4.97;;;1.63;;
64313;SDS011;50650;48.180;11.524;2022-08-03T07:29:12;4.88;;;1.80;;
64313;SDS011;50650;48.180;11.524;2022-08-03T07:31:38;4.53;;;1.90;;
64313;SDS011;50650;48.180;11.524;2022-08-03T07:34:06;8.75;;;4.22;;
64313;SDS011;50650;48.180;11.524;2022-08-03T07:36:32;6.95;;;2.15;;
64313;SDS011;50650;48.180;11.524;2022-08-03T07:38:58;5.10;;;1.60;;
64313;SDS011;50650;48.180;11.524;2022-08-03T07:41:25;4.63;;;1.77;;
64313;SDS011;50650;48.180;11.524;2022-08-03T07:43:51;2.17;;;1.55;;
64313;SDS011;50650;48.180;11.524;2022-08-03T07:46:19;2.45;;;1.48;;
64313;SDS011;50650;48.180;11.524;2022-08-03T07:48:45;4.30;;;1.52;;
64313;SDS011;50650;48.180;11.524;2022-08-03T07:51:12;5.72;;;1.63;;
64313;SDS011;50650;48.180;11.524;2022-08-03T07:53:38;3.92;;;1.80;;
64313;SDS011;50650;48.180;11.524;2022-08-03T07:56:05;2.03;;;1.30;;
64313;SDS011;50650;48.180;11.524;2022-08-03T07:58:31;2.80;;;1.80;;
64313;SDS011;50650;48.180;11.524;2022-08-03T08:00:58;4.32;;;1.15;;
64313;SDS011;50650;48.180;11.524;2022-08-03T08:03:25;3.80;;;1.27;;
64313;SDS011;50650;48.180;11.524;2022-08-03T08:05:52;2.33;;;1.30;;
64313;SDS011;50650;48.180;11.524;2022-08-03T08:08:18;1.95;;;0.98;;
64313;SDS011;50650;48.180;11.524;2022-08-03T08:10:45;5.40;;;1.27;;
64313;SDS011;50650;48.180;11.524;2022-08-03T08:13:11;4.53;;;1.10;;
64313;SDS011;50650;48.180;11.524;2022-08-03T08:15:38;3.30;;;0.95;;
64313;SDS011;50650;48.180;11.524;2022-08-03T08:18:04;4.05;;;0.82;;
64313;SDS011;50650;48.180;11.524;2022-08-03T08:20:34;1.42;;;0.85;;
64313;SDS011;50650;48.180;11.524;2022-08-03T08:23:03;2.13;;;0.98;;
64313;SDS011;50650;48.180;11.524;2022-08-03T08:25:31;2.40;;;1.33;;
64313;SDS011;50650;48.180;11.524;2022-08-03T08:27:58;4.32;;;0.93;;
64313;SDS011;50650;48.180;11.524;2022-08-03T08:30:26;1.65;;;1.00;;
64313;SDS011;50650;48.180;11.524;2022-08-03T08:32:53;3.05;;;1.10;;
64313;SDS011;50650;48.180;11.524;2022-08-03T08:35:19;4.55;;;1.05;;
64313;SDS011;50650;48.180;11.524;2022-08-03T08:37:47;4.63;;;1.20;;
64313;SDS011;50650;48.180;11.524;2022-08-03T08:40:13;4.32;;;1.15;;
64313;SDS011;50650;48.180;11.524;2022-08-03T08:42:41;3.42;;;1.30;;
64313;SDS011;50650;48.180;11.524;2022-08-03T08:45:09;5.30;;;1.10;;
64313;SDS011;50650;48.180;11.524;2022-08-03T08:47:37;5.40;;;1.20;;
64313;SDS011;50650;48.180;11.524;2022-08-03T08:50:04;2.20;;;1.25;;
64313;SDS011;50650;48.180;11.524;2022-08-03T08:52:32;2.25;;;1.20;;
64313;SDS011;50650;48.180;11.524;2022-08-03T08:55:01;2.70;;;0.98;;
64313;SDS011;50650;48.180;11.524;2022-08-03T08:57:29;7.20;;;1.25;;
64313;SDS011;50650;48.180;11.524;2022-08-03T08:59:56;2.17;;;0.90;;
64313;SDS011;50650;48.180;11.524;2022-08-03T09:02:23;1.10;;;0.82;;
64313;SDS011;50650;48.180;11.524;2022-08-03T09:04:50;1.45;;;0.80;;
64313;SDS011;50650;48.180;11.524;2022-08-03T09:07:17;7.80;;;0.90;;
64313;SDS011;50650;48.180;11.524;2022-08-03T09:09:43;1.98;;;0.80;;
64313;SDS011;50650;48.180;11.524;2022-08-03T09:12:11;1.52;;;1.00;;
64313;SDS011;50650;48.180;11.524;2022-08-03T09:14:37;1.10;;;1.00;;
64313;SDS011;50650;48.180;11.524;2022-08-03T09:17:04;1.48;;;1.00;;
64313;SDS011;50650;48.180;11.524;2022-08-03T09:19:30;2.97;;;1.00;;
64313;SDS011;50650;48.180;11.524;2022-08-03T09:22:07;1.10;;;1.00;;
64313;SDS011;50650;48.180;11.524;2022-08-03T09:24:35;2.88;;;0.70;;
64313;SDS011;50650;48.180;11.524;2022-08-03T09:27:03;1.05;;;0.95;;
64313;SDS011;50650;48.180;11.524;2022-08-03T09:29:32;2.13;;;1.00;;
64313;SDS011;50650;48.180;11.524;2022-08-03T09:32:00;1.10;;;0.70;;
64313;SDS011;50650;48.180;11.524;2022-08-03T09:34:27;1.52;;;0.90;;
64313;SDS011;50650;48.180;11.524;2022-08-03T09:36:54;1.15;;;0.80;;
64313;SDS011;50650;48.180;11.524;2022-08-03T09:39:22;1.10;;;0.90;;
64313;SDS011;50650;48.180;11.524;2022-08-03T09:42:03;2.35;;;0.90;;
64313;SDS011;50650;48.180;11.524;2022-08-03T09:44:34;1.58;;;0.80;;
64313;SDS011;50650;48.180;11.524;2022-08-03T09:47:02;0.75;;;0.73;;
64313;SDS011;50650;48.180;11.524;2022-08-03T09:49:29;1.67;;;1.08;;
64313;SDS011;50650;48.180;11.524;2022-08-03T09:51:56;1.02;;;0.90;;
64313;SDS011;50650;48.180;11.524;2022-08-03T09:54:26;3.38;;;0.90;;
64313;SDS011;50650;48.180;11.524;2022-08-03T09:56:53;1.55;;;0.90;;
64313;SDS011;50650;48.180;11.524;2022-08-03T09:59:23;4.55;;;1.00;;
64313;SDS011;50650;48.180;11.524;2022-08-03T10:01:52;1.38;;;1.00;;
64313;SDS011;50650;48.180;11.524;2022-08-03T10:04:19;2.22;;;0.70;;
64313;SDS011;50650;48.180;11.524;2022-08-03T10:07:00;1.73;;;0.95;;
64313;SDS011;50650;48.180;11.524;2022-08-03T10:09:27;2.08;;;1.08;;
64313;SDS011;50650;48.180;11.524;2022-08-03T10:11:54;1.23;;;1.00;;
64313;SDS011;50650;48.180;11.524;2022-08-03T10:14:20;6.82;;;1.25;;
64313;SDS011;50650;48.180;11.524;2022-08-03T10:16:49;2.65;;;1.10;;
64313;SDS011;50650;48.180;11.524;2022-08-03T10:19:17;2.38;;;1.10;;
64313;SDS011;50650;48.180;11.524;2022-08-03T10:21:45;1.35;;;1.00;;
64313;SDS011;50650;48.180;11.524;2022-08-03T10:24:13;3.95;;;0.95;;
64313;SDS011;50650;48.180;11.524;2022-08-03T10:26:43;1.77;;;0.80;;
64313;SDS011;50650;48.180;11.524;2022-08-03T10:29:10;1.00;;;0.80;;
64313;SDS011;50650;48.180;11.524;2022-08-03T10:31:38;3.80;;;1.00;;
64313;SDS011;50650;48.180;11.524;2022-08-03T10:34:07;1.20;;;0.90;;
64313;SDS011;50650;48.180;11.524;2022-08-03T10:36:37;0.93;;;0.80;;
64313;SDS011;50650;48.180;11.524;2022-08-03T10:39:06;2.80;;;1.20;;
64313;SDS011;50650;48.180;11.524;2022-08-03T10:41:34;1.33;;;0.93;;
64313;SDS011;50650;48.180;11.524;2022-08-03T10:44:03;3.92;;;0.70;;
64313;SDS011;50650;48.180;11.524;2022-08-03T10:46:34;2.30;;;0.90;;
64313;SDS011;50650;48.180;11.524;2022-08-03T10:49:01;1.77;;;0.93;;
64313;SDS011;50650;48.180;11.524;2022-08-03T10:51:30;2.25;;;0.85;;
64313;SDS011;50650;48.180;11.524;2022-08-03T10:53:58;0.90;;;0.70;;
64313;SDS011;50650;48.180;11.524;2022-08-03T10:56:38;1.88;;;0.80;;
64313;SDS011;50650;48.180;11.524;2022-08-03T11:05:28;2.35;;;0.80;;
64313;SDS011;50650;48.180;11.524;2022-08-03T11:10:49;0.70;;;0.70;;
64313;SDS011;50650;48.180;11.524;2022-08-03T11:13:17;2.60;;;0.60;;
64313;SDS011;50650;48.180;11.524;2022-08-03T11:15:46;1.02;;;0.82;;
64313;SDS011;50650;48.180;11.524;2022-08-03T11:18:15;1.00;;;0.80;;
64313;SDS011;50650;48.180;11.524;2022-08-03T11:20:43;2.60;;;0.82;;
64313;SDS011;50650;48.180;11.524;2022-08-03T11:23:10;1.58;;;0.80;;
64313;SDS011;50650;48.180;11.524;2022-08-03T11:28:39;3.53;;;0.93;;
64313;SDS011;50650;48.180;11.524;2022-08-03T11:34:11;0.70;;;0.60;;
64313;SDS011;50650;48.180;11.524;2022-08-03T11:39:43;0.88;;;0.88;;
64313;SDS011;50650;48.180;11.524;2022-08-03T11:45:09;0.82;;;0.80;;
64313;SDS011;50650;48.180;11.524;2022-08-03T11:47:36;0.88;;;0.75;;
64313;SDS011;50650;48.180;11.524;2022-08-03T11:50:04;3.33;;;0.90;;
64313;SDS011;50650;48.180;11.524;2022-08-03T11:52:34;2.58;;;0.90;;
64313;SDS011;50650;48.180;11.524;2022-08-03T11:55:09;1.00;;;0.77;;
64313;SDS011;50650;48.180;11.524;2022-08-03T11:57:37;1.60;;;0.90;;
64313;SDS011;50650;48.180;11.524;2022-08-03T12:02:54;3.10;;;0.85;;
64313;SDS011;50650;48.180;11.524;2022-08-03T12:08:00;1.35;;;0.80;;
64313;SDS011;50650;48.180;11.524;2022-08-03T12:10:27;0.90;;;0.70;;
64313;SDS011;50650;48.180;11.524;2022-08-03T12:12:54;0.70;;;0.50;;
64313;SDS011;50650;48.180;11.524;2022-08-03T12:15:25;2.15;;;0.70;;
64313;SDS011;50650;48.180;11.524;2022-08-03T12:17:51;1.85;;;0.70;;
64313;SDS011;50650;48.180;11.524;2022-08-03T12:20:20;1.65;;;0.90;;
64313;SDS011;50650;48.180;11.524;2022-08-03T12:22:47;0.73;;;0.73;;
64313;SDS011;50650;48.180;11.524;2022-08-03T12:25:19;2.65;;;0.90;;
64313;SDS011;50650;48.180;11.524;2022-08-03T12:27:47;4.35;;;0.85;;
64313;SDS011;50650;48.180;11.524;2022-08-03T12:30:13;2.60;;;0.90;;
64313;SDS011;50650;48.180;11.524;2022-08-03T12:32:42;1.77;;;0.80;;
64313;SDS011;50650;48.180;11.524;2022-08-03T12:35:09;0.95;;;0.70;;
64313;SDS011;50650;48.180;11.524;2022-08-03T12:37:35;2.67;;;0.77;;
64313;SDS011;50650;48.180;11.524;2022-08-03T12:40:03;2.78;;;0.80;;
64313;SDS011;50650;48.180;11.524;2022-08-03T12:42:30;0.70;;;0.70;;
64313;SDS011;50650;48.180;11.524;2022-08-03T12:44:57;2.92;;;0.85;;
64313;SDS011;50650;48.180;11.524;2022-08-03T12:47:24;3.45;;;0.70;;
64313;SDS011;50650;48.180;11.524;2022-08-03T12:49:52;0.85;;;0.70;;
64313;SDS011;50650;48.180;11.524;2022-08-03T12:52:19;0.98;;;0.70;;
64313;SDS011;50650;48.180;11.524;2022-08-03T12:54:52;2.72;;;0.80;;
64313;SDS011;50650;48.180;11.524;2022-08-03T12:57:19;3.30;;;0.80;;
64313;SDS011;50650;48.180;11.524;2022-08-03T12:59:45;2.30;;;1.00;;
64313;SDS011;50650;48.180;11.524;2022-08-03T13:02:13;2.25;;;0.70;;
64313;SDS011;50650;48.180;11.524;2022-08-03T13:04:41;2.08;;;1.10;;
64313;SDS011;50650;48.180;11.524;2022-08-03T13:07:09;1.02;;;0.68;;
64313;SDS011;50650;48.180;11.524;2022-08-03T13:09:40;1.42;;;0.75;;
64313;SDS011;50650;48.180;11.524;2022-08-03T13:12:08;2.55;;;1.10;;
64313;SDS011;50650;48.180;11.524;2022-08-03T13:14:35;1.45;;;0.75;;
64313;SDS011;50650;48.180;11.524;2022-08-03T13:17:02;1.25;;;0.80;;
64313;SDS011;50650;48.180;11.524;2022-08-03T13:19:30;3.25;;;0.90;;
64313;SDS011;50650;48.180;11.524;2022-08-03T13:21:56;3.00;;;0.70;;
64313;SDS011;50650;48.180;11.524;2022-08-03T13:24:25;1.90;;;0.80;;
64313;SDS011;50650;48.180;11.524;2022-08-03T13:26:51;2.65;;;0.55;;
64313;SDS011;50650;48.180;11.524;2022-08-03T13:29:18;3.58;;;0.80;;
64313;SDS011;50650;48.180;11.524;2022-08-03T13:31:44;0.80;;;0.60;;
64313;SDS011;50650;48.180;11.524;2022-08-03T13:34:10;4.78;;;0.98;;
64313;SDS011;50650;48.180;11.524;2022-08-03T13:36:37;2.47;;;0.80;;
64313;SDS011;50650;48.180;11.524;2022-08-03T13:39:03;1.63;;;0.77;;
64313;SDS011;50650;48.180;11.524;2022-08-03T13:41:31;5.05;;;0.82;;
64313;SDS011;50650;48.180;11.524;2022-08-03T13:43:57;0.95;;;0.63;;
64313;SDS011;50650;48.180;11.524;2022-08-03T13:46:24;2.67;;;0.60;;
64313;SDS011;50650;48.180;11.524;2022-08-03T13:48:51;4.40;;;0.80;;
64313;SDS011;50650;48.180;11.524;2022-08-03T13:51:18;2.33;;;0.88;;
64313;SDS011;50650;48.180;11.524;2022-08-03T13:53:44;1.83;;;0.90;;
64313;SDS011;50650;48.180;11.524;2022-08-03T13:56:11;2.33;;;0.77;;
64313;SDS011;50650;48.180;11.524;2022-08-03T13:58:38;2.50;;;0.90;;
64313;SDS011;50650;48.180;11.524;2022-08-03T14:01:05;4.03;;;0.70;;
64313;SDS011;50650;48.180;11.524;2022-08-03T14:03:31;4.25;;;0.82;;
64313;SDS011;50650;48.180;11.524;2022-08-03T14:05:58;3.92;;;0.73;;
64313;SDS011;50650;48.180;11.524;2022-08-03T14:08:24;1.58;;;0.70;;
64313;SDS011;50650;48.180;11.524;2022-08-03T14:10:51;4.05;;;0.90;;
64313;SDS011;50650;48.180;11.524;2022-08-03T14:13:17;3.88;;;1.27;;
64313;SDS011;50650;48.180;11.524;2022-08-03T14:15:45;2.45;;;0.70;;
64313;SDS011;50650;48.180;11.524;2022-08-03T14:18:12;1.67;;;0.80;;
64313;SDS011;50650;48.180;11.524;2022-08-03T14:20:38;3.00;;;0.70;;
64313;SDS011;50650;48.180;11.524;2022-08-03T14:23:05;2.40;;;0.88;;
64313;SDS011;50650;48.180;11.524;2022-08-03T14:25:31;2.10;;;0.77;;
64313;SDS011;50650;48.180;11.524;2022-08-03T14:27:58;4.18;;;0.80;;
64313;SDS011;50650;48.180;11.524;2022-08-03T14:30:24;10.00;;;0.80;;
64313;SDS011;50650;48.180;11.524;2022-08-03T14:32:52;2.25;;;1.00;;
64313;SDS011;50650;48.180;11.524;2022-08-03T14:35:18;2.80;;;0.60;;
64313;SDS011;50650;48.180;11.524;2022-08-03T14:37:45;2.38;;;0.80;;
64313;SDS011;50650;48.180;11.524;2022-08-03T14:40:11;2.58;;;0.90;;
64313;SDS011;50650;48.180;11.524;2022-08-03T14:42:38;2.03;;;0.70;;
64313;SDS011;50650;48.180;11.524;2022-08-03T14:45:05;3.42;;;0.95;;
64313;SDS011;50650;48.180;11.524;2022-08-03T14:47:31;3.38;;;1.00;;
64313;SDS011;50650;48.180;11.524;2022-08-03T14:49:59;1.83;;;1.10;;
64313;SDS011;50650;48.180;11.524;2022-08-03T14:52:28;5.28;;;0.82;;
64313;SDS011;50650;48.180;11.524;2022-08-03T14:54:54;5.13;;;0.88;;
64313;SDS011;50650;48.180;11.524;2022-08-03T14:57:21;1.45;;;0.90;;
64313;SDS011;50650;48.180;11.524;2022-08-03T14:59:48;3.47;;;0.80;;
64313;SDS011;50650;48.180;11.524;2022-08-03T15:02:14;1.60;;;0.98;;